createdAt,value
2022-11-08T00:01:41.386Z,7.97
2022-11-08T00:05:41.736Z,7.93
2022-11-08T00:09:43.651Z,7.89
2022-11-08T00:13:43.983Z,7.88
2022-11-08T00:17:28.167Z,7.86
2022-11-08T00:21:10.850Z,7.85
2022-11-08T00:24:54.841Z,7.80
2022-11-08T00:28:37.544Z,7.83
2022-11-08T00:32:22.224Z,7.82
2022-11-08T00:36:05.616Z,7.81
2022-11-08T00:39:48.340Z,7.79
2022-11-08T00:43:32.728Z,7.80
2022-11-08T00:47:15.400Z,7.79
2022-11-08T00:51:02.375Z,7.80
2022-11-08T00:54:45.065Z,7.80
2022-11-08T00:58:28.472Z,7.75
2022-11-08T01:02:16.442Z,7.72
2022-11-08T01:05:59.118Z,7.71
2022-11-08T01:09:41.799Z,7.65
2022-11-08T01:13:24.506Z,7.60
2022-11-08T01:17:07.137Z,7.53
2022-11-08T01:20:51.639Z,7.44
2022-11-08T01:24:34.355Z,7.40
2022-11-08T01:28:18.388Z,7.35
2022-11-08T01:32:01.240Z,7.27
2022-11-08T01:35:46.214Z,7.15
2022-11-08T01:39:32.913Z,7.11
2022-11-08T01:43:38.262Z,7.11
2022-11-08T01:47:20.910Z,7.11
2022-11-08T01:51:03.550Z,7.08
2022-11-08T01:54:55.999Z,7.02
2022-11-08T01:58:39.629Z,6.97
2022-11-08T02:02:22.604Z,6.92
2022-11-08T02:06:05.667Z,6.92
2022-11-08T02:09:49.849Z,6.87
2022-11-08T02:13:34.382Z,6.87
2022-11-08T02:17:17.220Z,6.92
2022-11-08T02:21:12.096Z,6.93
2022-11-08T02:24:58.292Z,6.91
2022-11-08T02:28:41.331Z,6.91
2022-11-08T02:32:28.193Z,6.94
2022-11-08T02:36:12.485Z,6.91
2022-11-08T02:39:56.485Z,6.84
2022-11-08T02:43:41.925Z,6.76
2022-11-08T02:47:25.130Z,6.70
2022-11-08T02:51:10.560Z,6.63
2022-11-08T02:54:53.648Z,6.55
2022-11-08T02:58:37.704Z,6.48
2022-11-08T03:02:20.444Z,6.40
2022-11-08T03:06:03.336Z,6.33
2022-11-08T03:09:46.022Z,6.27
2022-11-08T03:13:28.683Z,6.25
2022-11-08T03:17:12.726Z,6.22
2022-11-08T03:20:55.401Z,6.19
2022-11-08T03:24:38.058Z,6.15
2022-11-08T03:28:23.090Z,6.18
2022-11-08T03:32:06.255Z,6.21
2022-11-08T03:35:50.712Z,6.22
2022-11-08T03:39:33.572Z,6.23
2022-11-08T03:43:16.228Z,6.18
2022-11-08T03:46:59.452Z,6.10
2022-11-08T03:50:42.223Z,6.01
2022-11-08T03:54:26.375Z,5.93
2022-11-08T03:58:09.665Z,5.87
2022-11-08T04:01:52.480Z,5.84
2022-11-08T04:05:35.394Z,5.78
2022-11-08T04:09:21.527Z,5.73
2022-11-08T04:13:34.797Z,5.71
2022-11-08T04:17:17.479Z,5.71
2022-11-08T04:21:19.266Z,5.69
2022-11-08T04:25:01.919Z,5.66
2022-11-08T04:28:46.297Z,5.65
2022-11-08T04:32:29.368Z,5.58
2022-11-08T04:36:13.614Z,5.52
2022-11-08T04:39:56.306Z,5.52
2022-11-08T04:43:39.119Z,5.50
2022-11-08T04:47:23.153Z,5.44
2022-11-08T04:51:07.434Z,5.42
2022-11-08T04:54:50.091Z,5.37
2022-11-08T04:58:34.557Z,5.38
2022-11-08T05:02:17.394Z,5.39
2022-11-08T05:06:03.303Z,5.43
2022-11-08T05:09:46.047Z,5.51
2022-11-08T05:13:28.722Z,5.63
2022-11-08T05:17:11.397Z,5.68
2022-11-08T05:21:12.641Z,5.77
2022-11-08T05:24:56.661Z,5.79
2022-11-08T05:28:40.399Z,5.83
2022-11-08T05:32:23.162Z,5.77
2022-11-08T05:36:07.691Z,5.71
2022-11-08T05:39:50.306Z,5.62
2022-11-08T05:43:34.314Z,5.53
2022-11-08T05:47:17.179Z,5.46
2022-11-08T05:50:59.880Z,5.41
2022-11-08T05:54:42.525Z,5.39
2022-11-08T05:58:25.200Z,5.39
2022-11-08T06:02:09.584Z,5.42
2022-11-08T06:05:52.277Z,5.44
2022-11-08T06:09:34.875Z,5.46
2022-11-08T06:13:17.556Z,5.44
2022-11-08T06:17:00.308Z,5.43
2022-11-08T06:20:44.506Z,5.43
2022-11-08T06:24:27.155Z,5.44
2022-11-08T06:28:09.917Z,5.48
2022-11-08T06:31:55.565Z,5.53
2022-11-08T06:35:38.430Z,5.60
2022-11-08T06:39:28.282Z,5.67
2022-11-08T06:43:16.368Z,5.80
2022-11-08T06:47:01.854Z,5.91
2022-11-08T06:50:44.861Z,5.98
2022-11-08T06:54:28.943Z,6.05
2022-11-08T06:58:11.947Z,6.11
2022-11-08T07:01:54.788Z,6.19
2022-11-08T07:05:37.642Z,6.29
2022-11-08T07:09:23.005Z,6.38
2022-11-08T07:13:08.903Z,6.41
2022-11-08T07:16:51.621Z,6.28
2022-11-08T07:20:34.618Z,6.23
2022-11-08T07:24:17.285Z,6.38
2022-11-08T07:28:03.194Z,6.54
2022-11-08T07:31:47.237Z,6.68
2022-11-08T07:35:29.995Z,6.80
2022-11-08T07:39:12.620Z,6.91
2022-11-08T07:43:11.587Z,7.00
2022-11-08T07:47:02.723Z,7.09
2022-11-08T07:50:47.571Z,7.17
2022-11-08T07:54:30.163Z,7.26
2022-11-08T07:58:13.021Z,7.35
2022-11-08T08:01:55.705Z,7.43
2022-11-08T08:05:43.651Z,7.52
2022-11-08T08:09:26.436Z,7.61
2022-11-08T08:13:09.656Z,7.72
2022-11-08T08:16:52.668Z,7.82
2022-11-08T08:20:36.465Z,7.92
2022-11-08T08:24:20.508Z,8.02
2022-11-08T08:28:03.331Z,8.17
2022-11-08T08:31:46.033Z,8.30
2022-11-08T08:35:28.680Z,8.40
2022-11-08T08:39:11.711Z,8.54
2022-11-08T08:42:56.398Z,8.68
2022-11-08T08:46:39.211Z,8.82
2022-11-08T08:50:22.707Z,8.97
2022-11-08T08:54:05.477Z,9.14
2022-11-08T08:57:49.133Z,9.29
2022-11-08T09:01:40.348Z,9.45
2022-11-08T09:05:23.425Z,9.59
2022-11-08T09:09:06.472Z,9.74
2022-11-08T09:12:50.054Z,9.97
2022-11-08T09:16:34.181Z,10.18
2022-11-08T09:20:17.064Z,10.33
2022-11-08T09:23:59.705Z,10.49
2022-11-08T09:27:42.383Z,10.63
2022-11-08T09:31:25.054Z,10.76
2022-11-08T09:35:09.602Z,10.89
2022-11-08T09:38:52.281Z,11.04
2022-11-08T09:42:44.049Z,11.17
2022-11-08T09:46:30.866Z,11.33
2022-11-08T09:50:20.184Z,11.39
2022-11-08T09:54:04.158Z,11.45
2022-11-08T09:57:56.324Z,11.39
2022-11-08T10:01:40.006Z,11.44
2022-11-08T10:05:24.482Z,11.58
2022-11-08T10:09:21.305Z,11.79
2022-11-08T10:13:10.994Z,11.94
2022-11-08T10:16:59.809Z,12.03
2022-11-08T10:20:53.808Z,12.07
2022-11-08T10:24:39.188Z,12.06
2022-11-08T10:28:24.437Z,12.06
2022-11-08T10:32:15.613Z,12.06
2022-11-08T10:36:47.010Z,12.07
2022-11-08T10:40:38.925Z,12.14
2022-11-08T10:44:24.301Z,12.22
2022-11-08T10:48:07.428Z,12.36
2022-11-08T10:51:51.752Z,12.53
2022-11-08T10:55:38.485Z,12.64
2022-11-08T10:59:30.767Z,12.73
2022-11-08T11:03:28.952Z,12.78
2022-11-08T11:07:29.581Z,12.84
2022-11-08T11:11:24.316Z,12.90
2022-11-08T11:15:15.474Z,13.04
2022-11-08T11:18:59.313Z,13.21
2022-11-08T11:22:47.136Z,13.41
2022-11-08T11:26:34.292Z,13.55
2022-11-08T11:30:23.810Z,13.67
2022-11-08T11:34:44.198Z,13.78
2022-11-08T11:38:48.908Z,13.90
2022-11-08T11:42:45.740Z,14.06
2022-11-08T11:46:31.266Z,14.16
2022-11-08T11:50:20.405Z,14.30
2022-11-08T11:54:08.055Z,14.42
2022-11-08T11:58:02.086Z,14.53
2022-11-08T12:01:56.529Z,14.64
2022-11-08T12:05:48.796Z,14.79
2022-11-08T12:09:42.112Z,15.02
2022-11-08T12:13:31.774Z,15.30
2022-11-08T12:17:33.405Z,15.50
2022-11-08T12:21:16.890Z,15.64
2022-11-08T12:25:06.077Z,15.75
2022-11-08T12:29:08.025Z,15.89
2022-11-08T12:33:13.647Z,16.06
2022-11-08T12:37:11.497Z,16.19
2022-11-08T12:40:57.646Z,16.44
2022-11-08T12:45:12.135Z,16.53
2022-11-08T12:49:19.961Z,16.63
2022-11-08T12:53:23.959Z,16.76
2022-11-08T12:57:11.564Z,16.97
2022-11-08T13:00:58.571Z,17.03
2022-11-08T13:04:44.367Z,17.00
2022-11-08T13:08:31.995Z,16.98
2022-11-08T13:12:23.915Z,16.94
2022-11-08T13:16:14.613Z,17.01
2022-11-08T13:20:05.363Z,17.13
2022-11-08T13:23:48.597Z,17.06
2022-11-08T13:27:35.829Z,17.08
2022-11-08T13:31:30.822Z,17.28
2022-11-08T13:35:18.157Z,17.30
2022-11-08T13:39:13.178Z,17.37
2022-11-08T13:43:02.247Z,17.39
2022-11-08T13:46:48.436Z,17.45
2022-11-08T13:50:54.560Z,17.49
2022-11-08T13:54:50.871Z,17.47
2022-11-08T13:58:36.022Z,17.50
2022-11-08T14:02:46.835Z,17.61
2022-11-08T14:06:35.757Z,17.75
2022-11-08T14:10:22.325Z,17.73
2022-11-08T14:14:35.091Z,17.48
2022-11-08T14:18:25.921Z,17.32
2022-11-08T14:22:15.325Z,17.35
2022-11-08T14:25:59.763Z,17.53
2022-11-08T14:29:42.891Z,17.57
2022-11-08T14:33:30.886Z,17.35
2022-11-08T14:37:21.474Z,17.15
2022-11-08T14:41:08.303Z,17.13
2022-11-08T14:44:53.660Z,17.17
2022-11-08T14:48:37.689Z,17.26
2022-11-08T14:52:24.474Z,17.28
2022-11-08T14:56:19.416Z,17.37
2022-11-08T15:00:05.692Z,17.41
2022-11-08T15:03:54.287Z,17.44
2022-11-08T15:07:36.982Z,17.43
2022-11-08T15:11:30.273Z,17.33
2022-11-08T15:15:20.427Z,16.98
2022-11-08T15:19:18.816Z,16.60
2022-11-08T15:23:01.557Z,16.39
2022-11-08T15:27:02.755Z,16.16
2022-11-08T15:30:46.648Z,15.99
2022-11-08T15:34:35.797Z,15.82
2022-11-08T15:38:29.205Z,15.57
2022-11-08T15:42:13.986Z,15.31
2022-11-08T15:45:56.794Z,15.13
2022-11-08T15:49:45.118Z,14.98
2022-11-08T15:53:28.466Z,14.82
2022-11-08T15:57:12.075Z,14.66
2022-11-08T16:00:55.523Z,14.49
2022-11-08T16:04:38.459Z,14.35
2022-11-08T16:08:22.953Z,14.19
2022-11-08T16:12:06.424Z,14.04
2022-11-08T16:15:49.253Z,13.89
2022-11-08T16:19:32.012Z,13.77
2022-11-08T16:23:15.040Z,13.64
2022-11-08T16:26:59.072Z,13.52
2022-11-08T16:30:46.303Z,13.36
2022-11-08T16:34:28.994Z,13.26
2022-11-08T16:38:11.827Z,13.14
2022-11-08T16:41:54.524Z,13.09
2022-11-08T16:46:03.745Z,13.05
2022-11-08T16:49:41.994Z,12.99
2022-11-08T16:53:28.136Z,12.87
2022-11-08T16:57:33.595Z,12.74
2022-11-08T17:01:17.849Z,12.59
2022-11-08T17:05:00.681Z,12.46
2022-11-08T17:08:43.754Z,12.32
2022-11-08T17:12:26.718Z,12.19
2022-11-08T17:16:11.021Z,12.08
2022-11-08T17:19:55.266Z,12.00
2022-11-08T17:23:37.918Z,11.94
2022-11-08T17:27:20.642Z,11.88
2022-11-08T17:31:11.371Z,11.78
2022-11-08T17:34:55.457Z,11.71
2022-11-08T17:38:39.048Z,11.64
2022-11-08T17:42:21.637Z,11.58
2022-11-08T17:46:04.430Z,11.53
2022-11-08T17:49:47.190Z,11.48
2022-11-08T17:53:31.538Z,11.41
2022-11-08T17:57:14.538Z,11.34
2022-11-08T18:01:01.574Z,11.30
2022-11-08T18:04:44.463Z,11.28
2022-11-08T18:08:30.379Z,11.30
2022-11-08T18:12:14.403Z,11.37
2022-11-08T18:15:59.030Z,11.36
2022-11-08T18:19:42.946Z,11.27
2022-11-08T18:23:25.616Z,11.20
2022-11-08T18:27:08.578Z,11.16
2022-11-08T18:30:52.708Z,11.11
2022-11-08T18:34:37.541Z,11.06
2022-11-08T18:38:20.206Z,11.03
2022-11-08T18:42:02.875Z,11.13
2022-11-08T18:45:45.660Z,12.65
2022-11-08T18:49:29.736Z,13.20
2022-11-08T18:53:12.412Z,12.85
2022-11-08T18:56:55.065Z,12.50
2022-11-08T19:00:37.761Z,12.26
2022-11-08T19:04:20.406Z,12.12
2022-11-08T19:08:04.542Z,12.01
2022-11-08T19:11:49.811Z,11.94
2022-11-08T19:15:32.510Z,11.91
2022-11-08T19:19:17.810Z,11.85
2022-11-08T19:23:00.647Z,11.76
2022-11-08T19:26:44.742Z,11.68
2022-11-08T19:30:27.414Z,11.59
2022-11-08T19:34:10.458Z,11.52
2022-11-08T19:37:53.125Z,11.48
2022-11-08T19:41:38.714Z,11.44
2022-11-08T19:45:22.721Z,11.44
2022-11-08T19:49:05.566Z,11.43
2022-11-08T19:52:48.346Z,11.43
2022-11-08T19:56:50.587Z,11.46
2022-11-08T20:00:35.025Z,11.50
2022-11-08T20:04:18.530Z,11.54
2022-11-08T20:08:04.730Z,11.53
2022-11-08T20:11:47.509Z,11.55
2022-11-08T20:15:30.196Z,11.57
2022-11-08T20:19:16.783Z,11.58
2022-11-08T20:22:59.520Z,11.47
2022-11-08T20:26:42.559Z,11.34
2022-11-08T20:30:25.213Z,11.21
2022-11-08T20:34:10.320Z,11.14
2022-11-08T20:37:57.510Z,11.07
2022-11-08T20:41:41.122Z,11.05
2022-11-08T20:45:23.809Z,11.00
2022-11-08T20:49:07.220Z,10.92
2022-11-08T20:52:49.865Z,10.81
2022-11-08T20:56:37.381Z,10.75
2022-11-08T21:00:32.825Z,10.68
2022-11-08T21:04:23.049Z,10.62
2022-11-08T21:08:57.144Z,10.60
2022-11-08T21:12:09.918Z,10.55
2022-11-08T21:15:52.781Z,10.51
2022-11-08T21:19:35.443Z,10.50
2022-11-08T21:23:21.659Z,10.46
2022-11-08T21:27:04.386Z,10.43
2022-11-08T21:30:51.404Z,10.38
2022-11-08T21:34:34.040Z,10.37
2022-11-08T21:38:17.164Z,10.35
2022-11-08T21:42:00.136Z,10.33
2022-11-08T21:45:42.860Z,10.28
2022-11-08T21:49:26.886Z,10.27
2022-11-08T21:53:11.895Z,10.23
2022-11-08T21:56:56.449Z,10.13
2022-11-08T22:00:42.022Z,10.05
2022-11-08T22:04:26.199Z,10.06
2022-11-08T22:08:08.935Z,10.03
2022-11-08T22:11:53.051Z,10.00
2022-11-08T22:15:35.731Z,10.00
2022-11-08T22:19:18.401Z,10.02
2022-11-08T22:23:07.805Z,10.03
2022-11-08T22:26:52.629Z,10.02
2022-11-08T22:30:35.247Z,9.99
2022-11-08T22:34:21.115Z,10.00
2022-11-08T22:38:06.078Z,9.99
2022-11-08T22:41:51.701Z,10.00
2022-11-08T22:45:38.270Z,9.98
2022-11-08T22:49:20.926Z,9.98
2022-11-08T22:53:08.111Z,9.97
2022-11-08T22:56:50.801Z,9.97
2022-11-08T23:00:33.455Z,9.99
2022-11-08T23:04:16.198Z,9.97
2022-11-08T23:07:58.939Z,9.91
2022-11-08T23:12:00.636Z,9.85
2022-11-08T23:16:01.020Z,10.79
2022-11-08T23:20:01.367Z,11.44
2022-11-08T23:24:01.767Z,11.40
2022-11-08T23:28:03.072Z,10.99
2022-11-08T23:31:45.727Z,10.70
2022-11-08T23:35:28.391Z,10.49
2022-11-08T23:39:11.037Z,10.35
2022-11-08T23:43:22.545Z,10.26
2022-11-08T23:47:05.385Z,10.15
2022-11-08T23:50:49.758Z,10.11
2022-11-08T23:54:32.429Z,10.05
2022-11-08T23:58:16.679Z,9.97
